sensor_id;sensor_type;location;lat;lon;timestamp;temperature;humidity
65972;SHT31;52726;48.852;9.152;2022-10-15T00:01:23;14.25;95.83
65972;SHT31;52726;48.852;9.152;2022-10-15T00:03:50;14.24;95.75
65972;SHT31;52726;48.852;9.152;2022-10-15T00:06:18;14.25;95.62
65972;SHT31;52726;48.852;9.152;2022-10-15T00:08:44;14.25;95.50
65972;SHT31;52726;48.852;9.152;2022-10-15T00:11:21;14.28;95.93
65972;SHT31;52726;48.852;9.152;2022-10-15T00:13:47;14.23;96.02
65972;SHT31;52726;48.852;9.152;2022-10-15T00:16:15;14.24;95.77
65972;SHT31;52726;48.852;9.152;2022-10-15T00:18:42;14.25;95.82
65972;SHT31;52726;48.852;9.152;2022-10-15T00:21:12;14.27;95.88
65972;SHT31;52726;48.852;9.152;2022-10-15T00:23:39;14.28;96.07
65972;SHT31;52726;48.852;9.152;2022-10-15T00:26:10;14.27;96.08
65972;SHT31;52726;48.852;9.152;2022-10-15T00:28:36;14.30;96.09
65972;SHT31;52726;48.852;9.152;2022-10-15T00:31:04;14.28;96.13
65972;SHT31;52726;48.852;9.152;2022-10-15T00:33:30;14.31;96.12
65972;SHT31;52726;48.852;9.152;2022-10-15T00:36:05;14.31;96.13
65972;SHT31;52726;48.852;9.152;2022-10-15T00:38:32;14.27;95.92
65972;SHT31;52726;48.852;9.152;2022-10-15T00:40:57;14.32;95.97
65972;SHT31;52726;48.852;9.152;2022-10-15T00:43:43;14.35;95.89
65972;SHT31;52726;48.852;9.152;2022-10-15T00:46:19;14.35;95.75
65972;SHT31;52726;48.852;9.152;2022-10-15T00:48:50;14.40;95.92
65972;SHT31;52726;48.852;9.152;2022-10-15T00:51:18;14.38;96.18
65972;SHT31;52726;48.852;9.152;2022-10-15T00:53:45;14.40;95.97
65972;SHT31;52726;48.852;9.152;2022-10-15T00:56:12;14.41;95.97
65972;SHT31;52726;48.852;9.152;2022-10-15T00:58:39;14.40;96.30
65972;SHT31;52726;48.852;9.152;2022-10-15T01:01:05;14.42;95.96
65972;SHT31;52726;48.852;9.152;2022-10-15T01:03:30;14.46;96.31
65972;SHT31;52726;48.852;9.152;2022-10-15T01:05:55;14.44;96.05
65972;SHT31;52726;48.852;9.152;2022-10-15T01:08:21;14.42;95.99
65972;SHT31;52726;48.852;9.152;2022-10-15T01:10:52;14.45;96.32
65972;SHT31;52726;48.852;9.152;2022-10-15T01:13:38;14.48;96.17
65972;SHT31;52726;48.852;9.152;2022-10-15T01:16:24;14.49;96.24
65972;SHT31;52726;48.852;9.152;2022-10-15T01:18:58;14.51;96.07
65972;SHT31;52726;48.852;9.152;2022-10-15T01:21:32;14.49;96.18
65972;SHT31;52726;48.852;9.152;2022-10-15T01:24:41;14.51;96.16
65972;SHT31;52726;48.852;9.152;2022-10-15T01:27:20;14.52;96.39
65972;SHT31;52726;48.852;9.152;2022-10-15T01:32:52;14.55;96.29
65972;SHT31;52726;48.852;9.152;2022-10-15T01:35:53;14.57;96.37
65972;SHT31;52726;48.852;9.152;2022-10-15T01:39:24;14.57;96.52
65972;SHT31;52726;48.852;9.152;2022-10-15T01:41:43;14.62;96.69
65972;SHT31;52726;48.852;9.152;2022-10-15T01:44:16;14.64;96.73
65972;SHT31;52726;48.852;9.152;2022-10-15T01:46:53;14.68;96.84
65972;SHT31;52726;48.852;9.152;2022-10-15T01:49:24;14.67;96.87
65972;SHT31;52726;48.852;9.152;2022-10-15T01:51:53;14.68;97.07
65972;SHT31;52726;48.852;9.152;2022-10-15T01:54:22;14.69;96.96
65972;SHT31;52726;48.852;9.152;2022-10-15T01:56:50;14.71;97.11
65972;SHT31;52726;48.852;9.152;2022-10-15T01:59:19;14.69;97.06
65972;SHT31;52726;48.852;9.152;2022-10-15T02:01:45;14.68;97.25
65972;SHT31;52726;48.852;9.152;2022-10-15T02:04:20;14.71;97.23
65972;SHT31;52726;48.852;9.152;2022-10-15T02:06:49;14.71;97.34
65972;SHT31;52726;48.852;9.152;2022-10-15T02:09:26;14.72;97.10
65972;SHT31;52726;48.852;9.152;2022-10-15T02:14:56;14.76;97.15
65972;SHT31;52726;48.852;9.152;2022-10-15T02:18:15;14.73;97.03
65972;SHT31;52726;48.852;9.152;2022-10-15T02:20:55;14.72;97.32
65972;SHT31;52726;48.852;9.152;2022-10-15T02:23:52;14.72;97.27
65972;SHT31;52726;48.852;9.152;2022-10-15T02:26:19;14.75;97.41
65972;SHT31;52726;48.852;9.152;2022-10-15T02:28:49;14.73;97.32
65972;SHT31;52726;48.852;9.152;2022-10-15T02:31:18;14.73;97.32
65972;SHT31;52726;48.852;9.152;2022-10-15T02:33:45;14.76;97.50
65972;SHT31;52726;48.852;9.152;2022-10-15T02:36:12;14.72;97.51
65972;SHT31;52726;48.852;9.152;2022-10-15T02:38:39;14.72;97.60
65972;SHT31;52726;48.852;9.152;2022-10-15T02:41:07;14.73;97.54
65972;SHT31;52726;48.852;9.152;2022-10-15T02:43:35;14.75;97.62
65972;SHT31;52726;48.852;9.152;2022-10-15T02:46:01;14.76;97.52
65972;SHT31;52726;48.852;9.152;2022-10-15T02:48:27;14.73;97.52
65972;SHT31;52726;48.852;9.152;2022-10-15T02:50:52;14.78;97.52
65972;SHT31;52726;48.852;9.152;2022-10-15T02:53:17;14.78;97.31
65972;SHT31;52726;48.852;9.152;2022-10-15T02:55:43;14.78;97.43
65972;SHT31;52726;48.852;9.152;2022-10-15T02:58:08;14.79;97.48
65972;SHT31;52726;48.852;9.152;2022-10-15T03:00:33;14.78;97.59
65972;SHT31;52726;48.852;9.152;2022-10-15T03:02:59;14.78;97.71
65972;SHT31;52726;48.852;9.152;2022-10-15T03:05:24;14.75;97.69
65972;SHT31;52726;48.852;9.152;2022-10-15T03:07:49;14.76;97.77
65972;SHT31;52726;48.852;9.152;2022-10-15T03:10:15;14.73;97.84
65972;SHT31;52726;48.852;9.152;2022-10-15T03:12:40;14.75;97.94
65972;SHT31;52726;48.852;9.152;2022-10-15T03:15:06;14.75;98.01
65972;SHT31;52726;48.852;9.152;2022-10-15T03:17:32;14.75;98.03
65972;SHT31;52726;48.852;9.152;2022-10-15T03:19:57;14.73;97.90
65972;SHT31;52726;48.852;9.152;2022-10-15T03:22:23;14.75;97.98
65972;SHT31;52726;48.852;9.152;2022-10-15T03:24:48;14.76;97.97
65972;SHT31;52726;48.852;9.152;2022-10-15T03:27:13;14.75;97.86
65972;SHT31;52726;48.852;9.152;2022-10-15T03:29:39;14.73;97.77
65972;SHT31;52726;48.852;9.152;2022-10-15T03:32:04;14.79;97.75
65972;SHT31;52726;48.852;9.152;2022-10-15T03:34:29;14.78;97.80
65972;SHT31;52726;48.852;9.152;2022-10-15T03:36:55;14.79;97.83
65972;SHT31;52726;48.852;9.152;2022-10-15T03:39:20;14.79;97.85
65972;SHT31;52726;48.852;9.152;2022-10-15T03:41:45;14.78;97.90
65972;SHT31;52726;48.852;9.152;2022-10-15T03:44:12;14.80;97.69
65972;SHT31;52726;48.852;9.152;2022-10-15T03:46:37;14.79;97.81
65972;SHT31;52726;48.852;9.152;2022-10-15T03:49:03;14.80;97.81
65972;SHT31;52726;48.852;9.152;2022-10-15T03:51:28;14.85;97.82
65972;SHT31;52726;48.852;9.152;2022-10-15T03:53:54;14.86;97.96
65972;SHT31;52726;48.852;9.152;2022-10-15T03:56:19;14.89;98.04
65972;SHT31;52726;48.852;9.152;2022-10-15T03:58:44;14.89;98.12
65972;SHT31;52726;48.852;9.152;2022-10-15T04:01:11;14.88;98.12
65972;SHT31;52726;48.852;9.152;2022-10-15T04:03:38;14.89;98.23
65972;SHT31;52726;48.852;9.152;2022-10-15T04:06:03;14.90;98.20
65972;SHT31;52726;48.852;9.152;2022-10-15T04:08:29;14.89;98.14
65972;SHT31;52726;48.852;9.152;2022-10-15T04:10:54;14.88;98.10
65972;SHT31;52726;48.852;9.152;2022-10-15T04:13:20;14.88;98.17
65972;SHT31;52726;48.852;9.152;2022-10-15T04:15:45;14.89;98.05
65972;SHT31;52726;48.852;9.152;2022-10-15T04:18:10;14.90;98.10
65972;SHT31;52726;48.852;9.152;2022-10-15T04:20:36;14.90;98.10
65972;SHT31;52726;48.852;9.152;2022-10-15T04:23:02;14.93;98.13
65972;SHT31;52726;48.852;9.152;2022-10-15T04:25:27;14.93;98.20
65972;SHT31;52726;48.852;9.152;2022-10-15T04:27:52;14.93;98.22
65972;SHT31;52726;48.852;9.152;2022-10-15T04:30:18;14.92;98.24
65972;SHT31;52726;48.852;9.152;2022-10-15T04:32:43;14.90;98.20
65972;SHT31;52726;48.852;9.152;2022-10-15T04:35:09;14.93;98.24
65972;SHT31;52726;48.852;9.152;2022-10-15T04:37:34;14.93;98.17
65972;SHT31;52726;48.852;9.152;2022-10-15T04:40:00;14.90;98.18
65972;SHT31;52726;48.852;9.152;2022-10-15T04:42:28;14.90;98.23
65972;SHT31;52726;48.852;9.152;2022-10-15T04:44:54;14.90;98.22
65972;SHT31;52726;48.852;9.152;2022-10-15T04:47:19;14.89;98.20
65972;SHT31;52726;48.852;9.152;2022-10-15T04:49:44;14.89;98.18
65972;SHT31;52726;48.852;9.152;2022-10-15T04:52:10;14.88;98.21
65972;SHT31;52726;48.852;9.152;2022-10-15T04:54:35;14.88;98.14
65972;SHT31;52726;48.852;9.152;2022-10-15T04:57:05;14.86;98.16
65972;SHT31;52726;48.852;9.152;2022-10-15T04:59:30;14.85;98.17
65972;SHT31;52726;48.852;9.152;2022-10-15T05:01:55;14.85;98.12
65972;SHT31;52726;48.852;9.152;2022-10-15T05:04:24;14.83;98.09
65972;SHT31;52726;48.852;9.152;2022-10-15T05:06:49;14.83;98.13
65972;SHT31;52726;48.852;9.152;2022-10-15T05:09:15;14.82;98.07
65972;SHT31;52726;48.852;9.152;2022-10-15T05:11:40;14.82;98.10
65972;SHT31;52726;48.852;9.152;2022-10-15T05:14:06;14.80;98.04
65972;SHT31;52726;48.852;9.152;2022-10-15T05:16:32;14.82;98.14
65972;SHT31;52726;48.852;9.152;2022-10-15T05:19:00;14.82;98.16
65972;SHT31;52726;48.852;9.152;2022-10-15T05:21:27;14.80;98.14
65972;SHT31;52726;48.852;9.152;2022-10-15T05:23:52;14.80;98.13
65972;SHT31;52726;48.852;9.152;2022-10-15T05:26:20;14.79;98.13
65972;SHT31;52726;48.852;9.152;2022-10-15T05:28:46;14.82;98.20
65972;SHT31;52726;48.852;9.152;2022-10-15T05:31:15;14.79;98.17
65972;SHT31;52726;48.852;9.152;2022-10-15T05:33:41;14.85;98.23
65972;SHT31;52726;48.852;9.152;2022-10-15T05:38:50;14.79;98.21
65972;SHT31;52726;48.852;9.152;2022-10-15T05:41:15;14.79;98.16
65972;SHT31;52726;48.852;9.152;2022-10-15T05:43:41;14.78;98.21
65972;SHT31;52726;48.852;9.152;2022-10-15T05:46:07;14.75;98.19
65972;SHT31;52726;48.852;9.152;2022-10-15T05:48:32;14.78;98.26
65972;SHT31;52726;48.852;9.152;2022-10-15T05:51:06;14.76;98.17
65972;SHT31;52726;48.852;9.152;2022-10-15T05:53:32;14.75;98.11
65972;SHT31;52726;48.852;9.152;2022-10-15T05:55:57;14.72;98.10
65972;SHT31;52726;48.852;9.152;2022-10-15T05:58:27;14.72;98.07
65972;SHT31;52726;48.852;9.152;2022-10-15T06:00:58;14.73;98.09
65972;SHT31;52726;48.852;9.152;2022-10-15T06:03:24;14.71;98.10
65972;SHT31;52726;48.852;9.152;2022-10-15T06:05:50;14.72;98.11
65972;SHT31;52726;48.852;9.152;2022-10-15T06:08:16;14.72;98.05
65972;SHT31;52726;48.852;9.152;2022-10-15T06:10:42;14.71;97.97
65972;SHT31;52726;48.852;9.152;2022-10-15T06:13:08;14.69;98.03
65972;SHT31;52726;48.852;9.152;2022-10-15T06:15:33;14.69;98.00
65972;SHT31;52726;48.852;9.152;2022-10-15T06:17:59;14.71;97.99
65972;SHT31;52726;48.852;9.152;2022-10-15T06:20:25;14.71;98.01
65972;SHT31;52726;48.852;9.152;2022-10-15T06:22:55;14.72;98.00
65972;SHT31;52726;48.852;9.152;2022-10-15T06:25:21;14.67;98.00
65972;SHT31;52726;48.852;9.152;2022-10-15T06:28:08;14.71;97.98
65972;SHT31;52726;48.852;9.152;2022-10-15T06:30:34;14.72;97.83
65972;SHT31;52726;48.852;9.152;2022-10-15T06:32:59;14.75;97.72
65972;SHT31;52726;48.852;9.152;2022-10-15T06:35:25;14.72;97.73
65972;SHT31;52726;48.852;9.152;2022-10-15T06:37:54;14.75;97.79
65972;SHT31;52726;48.852;9.152;2022-10-15T06:40:20;14.79;97.73
65972;SHT31;52726;48.852;9.152;2022-10-15T06:42:45;14.75;97.71
65972;SHT31;52726;48.852;9.152;2022-10-15T06:45:11;14.78;97.76
65972;SHT31;52726;48.852;9.152;2022-10-15T06:47:38;14.80;97.75
65972;SHT31;52726;48.852;9.152;2022-10-15T06:50:04;14.83;97.76
65972;SHT31;52726;48.852;9.152;2022-10-15T06:52:30;14.86;97.64
65972;SHT31;52726;48.852;9.152;2022-10-15T06:54:56;14.88;97.61
65972;SHT31;52726;48.852;9.152;2022-10-15T06:57:22;14.90;97.51
65972;SHT31;52726;48.852;9.152;2022-10-15T06:59:49;14.90;97.51
65972;SHT31;52726;48.852;9.152;2022-10-15T07:02:14;14.95;97.45
65972;SHT31;52726;48.852;9.152;2022-10-15T07:04:42;14.96;97.36
65972;SHT31;52726;48.852;9.152;2022-10-15T07:07:07;14.99;97.39
65972;SHT31;52726;48.852;9.152;2022-10-15T07:09:36;15.00;97.14
65972;SHT31;52726;48.852;9.152;2022-10-15T07:12:01;15.02;97.16
65972;SHT31;52726;48.852;9.152;2022-10-15T07:14:27;15.00;97.06
65972;SHT31;52726;48.852;9.152;2022-10-15T07:16:52;15.03;97.13
65972;SHT31;52726;48.852;9.152;2022-10-15T07:19:18;15.03;97.04
65972;SHT31;52726;48.852;9.152;2022-10-15T07:21:43;15.04;97.02
65972;SHT31;52726;48.852;9.152;2022-10-15T07:24:09;15.07;97.05
65972;SHT31;52726;48.852;9.152;2022-10-15T07:26:34;15.10;96.86
65972;SHT31;52726;48.852;9.152;2022-10-15T07:29:11;15.14;96.75
65972;SHT31;52726;48.852;9.152;2022-10-15T07:31:37;15.22;96.87
65972;SHT31;52726;48.852;9.152;2022-10-15T07:34:02;15.27;96.70
65972;SHT31;52726;48.852;9.152;2022-10-15T07:36:27;15.36;96.72
65972;SHT31;52726;48.852;9.152;2022-10-15T07:38:53;15.45;96.56
65972;SHT31;52726;48.852;9.152;2022-10-15T07:41:18;15.53;96.55
65972;SHT31;52726;48.852;9.152;2022-10-15T07:43:43;15.57;96.13
65972;SHT31;52726;48.852;9.152;2022-10-15T07:46:09;15.62;95.65
65972;SHT31;52726;48.852;9.152;2022-10-15T07:48:34;15.64;95.52
65972;SHT31;52726;48.852;9.152;2022-10-15T07:51:05;15.64;95.25
65972;SHT31;52726;48.852;9.152;2022-10-15T07:53:31;15.64;94.71
65972;SHT31;52726;48.852;9.152;2022-10-15T07:55:59;15.64;94.96
65972;SHT31;52726;48.852;9.152;2022-10-15T07:58:25;15.61;94.66
65972;SHT31;52726;48.852;9.152;2022-10-15T08:00:51;15.62;94.60
65972;SHT31;52726;48.852;9.152;2022-10-15T08:03:17;15.57;94.40
65972;SHT31;52726;48.852;9.152;2022-10-15T08:05:42;15.48;94.08
65972;SHT31;52726;48.852;9.152;2022-10-15T08:08:07;15.51;94.33
65972;SHT31;52726;48.852;9.152;2022-10-15T08:10:35;15.47;94.35
65972;SHT31;52726;48.852;9.152;2022-10-15T08:13:00;15.41;94.44
65972;SHT31;52726;48.852;9.152;2022-10-15T08:15:25;15.41;94.89
65972;SHT31;52726;48.852;9.152;2022-10-15T08:17:51;15.41;94.75
65972;SHT31;52726;48.852;9.152;2022-10-15T08:20:19;15.37;94.47
65972;SHT31;52726;48.852;9.152;2022-10-15T08:22:44;15.37;94.76
65972;SHT31;52726;48.852;9.152;2022-10-15T08:25:10;15.40;94.82
65972;SHT31;52726;48.852;9.152;2022-10-15T08:27:35;15.43;94.96
65972;SHT31;52726;48.852;9.152;2022-10-15T08:30:04;15.54;94.93
65972;SHT31;52726;48.852;9.152;2022-10-15T08:32:30;15.55;94.93
65972;SHT31;52726;48.852;9.152;2022-10-15T08:34:55;15.61;95.02
65972;SHT31;52726;48.852;9.152;2022-10-15T08:37:21;15.64;94.98
65972;SHT31;52726;48.852;9.152;2022-10-15T08:39:46;15.65;94.88
65972;SHT31;52726;48.852;9.152;2022-10-15T08:42:17;15.65;94.32
65972;SHT31;52726;48.852;9.152;2022-10-15T08:44:49;15.62;93.86
65972;SHT31;52726;48.852;9.152;2022-10-15T08:47:26;15.62;93.82
65972;SHT31;52726;48.852;9.152;2022-10-15T08:49:55;15.62;94.14
65972;SHT31;52726;48.852;9.152;2022-10-15T08:55:05;15.64;94.87
65972;SHT31;52726;48.852;9.152;2022-10-15T09:07:40;15.78;95.04
65972;SHT31;52726;48.852;9.152;2022-10-15T09:10:42;15.79;94.94
65972;SHT31;52726;48.852;9.152;2022-10-15T09:13:29;15.82;94.92
65972;SHT31;52726;48.852;9.152;2022-10-15T09:18:36;15.82;94.33
65972;SHT31;52726;48.852;9.152;2022-10-15T09:21:07;15.83;94.20
65972;SHT31;52726;48.852;9.152;2022-10-15T09:23:34;15.88;94.12
65972;SHT31;52726;48.852;9.152;2022-10-15T09:26:12;15.91;94.12
65972;SHT31;52726;48.852;9.152;2022-10-15T09:28:42;15.99;94.75
65972;SHT31;52726;48.852;9.152;2022-10-15T09:31:13;16.01;94.12
65972;SHT31;52726;48.852;9.152;2022-10-15T09:33:47;16.05;94.45
65972;SHT31;52726;48.852;9.152;2022-10-15T09:36:31;16.14;94.38
65972;SHT31;52726;48.852;9.152;2022-10-15T09:39:31;16.22;94.14
65972;SHT31;52726;48.852;9.152;2022-10-15T09:44:41;16.37;93.96
65972;SHT31;52726;48.852;9.152;2022-10-15T09:47:38;16.37;93.58
65972;SHT31;52726;48.852;9.152;2022-10-15T09:50:06;16.39;93.67
65972;SHT31;52726;48.852;9.152;2022-10-15T09:52:47;16.40;94.00
65972;SHT31;52726;48.852;9.152;2022-10-15T09:57:46;16.54;93.99
65972;SHT31;52726;48.852;9.152;2022-10-15T10:00:12;16.64;94.46
65972;SHT31;52726;48.852;9.152;2022-10-15T10:02:39;16.74;94.40
65972;SHT31;52726;48.852;9.152;2022-10-15T10:05:28;16.82;94.49
65972;SHT31;52726;48.852;9.152;2022-10-15T10:08:22;16.92;94.01
65972;SHT31;52726;48.852;9.152;2022-10-15T10:10:57;17.04;93.58
65972;SHT31;52726;48.852;9.152;2022-10-15T10:13:48;16.99;92.95
65972;SHT31;52726;48.852;9.152;2022-10-15T10:16:17;17.15;93.29
65972;SHT31;52726;48.852;9.152;2022-10-15T10:18:44;17.14;92.55
65972;SHT31;52726;48.852;9.152;2022-10-15T10:21:34;17.15;92.84
65972;SHT31;52726;48.852;9.152;2022-10-15T10:26:44;17.11;92.88
65972;SHT31;52726;48.852;9.152;2022-10-15T10:29:15;17.14;92.71
65972;SHT31;52726;48.852;9.152;2022-10-15T10:31:42;17.25;93.21
65972;SHT31;52726;48.852;9.152;2022-10-15T10:34:14;17.32;92.05
65972;SHT31;52726;48.852;9.152;2022-10-15T10:36:40;17.32;89.68
65972;SHT31;52726;48.852;9.152;2022-10-15T10:41:52;17.42;89.58
65972;SHT31;52726;48.852;9.152;2022-10-15T10:44:40;17.53;89.84
65972;SHT31;52726;48.852;9.152;2022-10-15T10:47:13;17.60;88.53
65972;SHT31;52726;48.852;9.152;2022-10-15T10:49:43;17.54;88.97
65972;SHT31;52726;48.852;9.152;2022-10-15T10:55:18;17.43;88.41
65972;SHT31;52726;48.852;9.152;2022-10-15T10:57:45;17.42;88.40
65972;SHT31;52726;48.852;9.152;2022-10-15T11:00:21;17.51;86.69
65972;SHT31;52726;48.852;9.152;2022-10-15T11:02:48;17.70;87.78
65972;SHT31;52726;48.852;9.152;2022-10-15T11:05:21;17.78;86.86
65972;SHT31;52726;48.852;9.152;2022-10-15T11:07:59;17.75;86.45
65972;SHT31;52726;48.852;9.152;2022-10-15T11:11:16;17.70;84.75
65972;SHT31;52726;48.852;9.152;2022-10-15T11:13:55;17.80;85.65
65972;SHT31;52726;48.852;9.152;2022-10-15T11:16:59;17.88;84.51
65972;SHT31;52726;48.852;9.152;2022-10-15T11:22:10;18.01;85.76
65972;SHT31;52726;48.852;9.152;2022-10-15T11:27:39;18.11;85.59
65972;SHT31;52726;48.852;9.152;2022-10-15T11:39:13;18.30;82.98
65972;SHT31;52726;48.852;9.152;2022-10-15T11:50:26;18.33;82.42
65972;SHT31;52726;48.852;9.152;2022-10-15T11:53:04;18.47;82.92
65972;SHT31;52726;48.852;9.152;2022-10-15T11:56:02;18.47;81.66
65972;SHT31;52726;48.852;9.152;2022-10-15T11:58:33;18.39;81.64
65972;SHT31;52726;48.852;9.152;2022-10-15T12:01:04;18.55;81.50
65972;SHT31;52726;48.852;9.152;2022-10-15T12:03:35;18.50;79.52
65972;SHT31;52726;48.852;9.152;2022-10-15T12:06:10;18.53;79.39
65972;SHT31;52726;48.852;9.152;2022-10-15T12:08:38;18.49;79.83
65972;SHT31;52726;48.852;9.152;2022-10-15T12:17:06;18.38;79.43
65972;SHT31;52726;48.852;9.152;2022-10-15T12:19:36;18.29;79.32
65972;SHT31;52726;48.852;9.152;2022-10-15T12:22:08;18.22;80.50
65972;SHT31;52726;48.852;9.152;2022-10-15T12:35:12;17.80;80.90
65972;SHT31;52726;48.852;9.152;2022-10-15T12:37:44;17.80;82.92
65972;SHT31;52726;48.852;9.152;2022-10-15T12:40:26;17.85;84.48
65972;SHT31;52726;48.852;9.152;2022-10-15T12:42:59;17.81;83.73
65972;SHT31;52726;48.852;9.152;2022-10-15T12:45:37;17.78;84.79
65972;SHT31;52726;48.852;9.152;2022-10-15T12:50:30;17.59;83.18
65972;SHT31;52726;48.852;9.152;2022-10-15T12:52:57;17.55;83.10
65972;SHT31;52726;48.852;9.152;2022-10-15T12:55:26;17.50;82.59
65972;SHT31;52726;48.852;9.152;2022-10-15T12:58:38;17.62;83.86
65972;SHT31;52726;48.852;9.152;2022-10-15T13:01:27;17.55;83.51
65972;SHT31;52726;48.852;9.152;2022-10-15T13:03:53;17.51;82.75
65972;SHT31;52726;48.852;9.152;2022-10-15T13:11:39;17.53;83.00
65972;SHT31;52726;48.852;9.152;2022-10-15T13:16:42;17.51;82.35
65972;SHT31;52726;48.852;9.152;2022-10-15T13:19:21;17.54;82.41
65972;SHT31;52726;48.852;9.152;2022-10-15T13:24:17;17.60;82.83
65972;SHT31;52726;48.852;9.152;2022-10-15T13:26:43;17.55;83.02
65972;SHT31;52726;48.852;9.152;2022-10-15T13:29:17;17.42;83.71
65972;SHT31;52726;48.852;9.152;2022-10-15T13:31:43;17.30;84.41
65972;SHT31;52726;48.852;9.152;2022-10-15T13:36:40;17.15;86.72
65972;SHT31;52726;48.852;9.152;2022-10-15T13:39:26;17.09;86.84
65972;SHT31;52726;48.852;9.152;2022-10-15T13:42:40;17.01;86.56
65972;SHT31;52726;48.852;9.152;2022-10-15T13:44:42;16.99;87.22
65972;SHT31;52726;48.852;9.152;2022-10-15T13:47:34;16.96;87.77
65972;SHT31;52726;48.852;9.152;2022-10-15T13:50:15;16.84;86.77
65972;SHT31;52726;48.852;9.152;2022-10-15T13:52:45;16.78;87.27
65972;SHT31;52726;48.852;9.152;2022-10-15T13:55:26;16.78;87.70
65972;SHT31;52726;48.852;9.152;2022-10-15T13:57:58;16.85;87.26
65972;SHT31;52726;48.852;9.152;2022-10-15T14:00:30;16.85;87.59
65972;SHT31;52726;48.852;9.152;2022-10-15T14:03:13;16.88;87.78
65972;SHT31;52726;48.852;9.152;2022-10-15T14:05:41;16.91;87.81
65972;SHT31;52726;48.852;9.152;2022-10-15T14:08:14;16.91;87.77
65972;SHT31;52726;48.852;9.152;2022-10-15T14:10:40;16.85;87.66
65972;SHT31;52726;48.852;9.152;2022-10-15T14:13:08;16.88;87.38
65972;SHT31;52726;48.852;9.152;2022-10-15T14:18:34;16.75;87.84
65972;SHT31;52726;48.852;9.152;2022-10-15T14:21:01;16.75;88.68
65972;SHT31;52726;48.852;9.152;2022-10-15T14:23:27;16.69;89.25
65972;SHT31;52726;48.852;9.152;2022-10-15T14:25:55;16.61;89.52
65972;SHT31;52726;48.852;9.152;2022-10-15T14:28:22;16.57;90.35
65972;SHT31;52726;48.852;9.152;2022-10-15T14:30:49;16.56;90.77
65972;SHT31;52726;48.852;9.152;2022-10-15T14:33:50;16.51;90.80
65972;SHT31;52726;48.852;9.152;2022-10-15T14:36:46;16.47;89.93
65972;SHT31;52726;48.852;9.152;2022-10-15T14:39:33;16.44;89.52
65972;SHT31;52726;48.852;9.152;2022-10-15T14:42:21;16.50;90.02
65972;SHT31;52726;48.852;9.152;2022-10-15T14:44:49;16.56;90.41
65972;SHT31;52726;48.852;9.152;2022-10-15T14:47:24;16.60;89.74
65972;SHT31;52726;48.852;9.152;2022-10-15T14:49:54;16.68;89.92
65972;SHT31;52726;48.852;9.152;2022-10-15T14:52:20;16.71;89.79
65972;SHT31;52726;48.852;9.152;2022-10-15T14:55:14;16.75;90.01
65972;SHT31;52726;48.852;9.152;2022-10-15T14:57:42;16.71;89.23
65972;SHT31;52726;48.852;9.152;2022-10-15T15:00:25;16.68;88.94
65972;SHT31;52726;48.852;9.152;2022-10-15T15:02:54;16.74;88.98
65972;SHT31;52726;48.852;9.152;2022-10-15T15:05:25;16.77;89.16
65972;SHT31;52726;48.852;9.152;2022-10-15T15:07:50;16.79;88.85
65972;SHT31;52726;48.852;9.152;2022-10-15T15:10:16;16.82;88.48
65972;SHT31;52726;48.852;9.152;2022-10-15T15:12:48;16.82;87.97
65972;SHT31;52726;48.852;9.152;2022-10-15T15:15:16;16.88;88.39
65972;SHT31;52726;48.852;9.152;2022-10-15T15:17:43;16.89;89.17
65972;SHT31;52726;48.852;9.152;2022-10-15T15:20:10;16.88;88.38
65972;SHT31;52726;48.852;9.152;2022-10-15T15:22:36;16.89;88.19
65972;SHT31;52726;48.852;9.152;2022-10-15T15:25:06;16.92;87.77
65972;SHT31;52726;48.852;9.152;2022-10-15T15:27:34;16.92;87.88
65972;SHT31;52726;48.852;9.152;2022-10-15T15:30:03;16.92;87.07
65972;SHT31;52726;48.852;9.152;2022-10-15T15:32:29;16.92;87.51
65972;SHT31;52726;48.852;9.152;2022-10-15T15:34:54;16.89;86.57
65972;SHT31;52726;48.852;9.152;2022-10-15T15:37:22;16.94;86.47
65972;SHT31;52726;48.852;9.152;2022-10-15T15:39:49;17.01;85.79
65972;SHT31;52726;48.852;9.152;2022-10-15T15:42:19;17.05;86.04
65972;SHT31;52726;48.852;9.152;2022-10-15T15:44:45;17.12;85.91
65972;SHT31;52726;48.852;9.152;2022-10-15T15:47:10;17.09;85.46
65972;SHT31;52726;48.852;9.152;2022-10-15T15:49:36;17.11;85.24
65972;SHT31;52726;48.852;9.152;2022-10-15T15:52:03;17.09;85.31
65972;SHT31;52726;48.852;9.152;2022-10-15T15:54:29;17.09;84.93
65972;SHT31;52726;48.852;9.152;2022-10-15T15:56:55;17.06;85.51
65972;SHT31;52726;48.852;9.152;2022-10-15T15:59:20;17.04;84.94
65972;SHT31;52726;48.852;9.152;2022-10-15T16:01:46;17.02;85.05
65972;SHT31;52726;48.852;9.152;2022-10-15T16:04:11;16.96;86.12
65972;SHT31;52726;48.852;9.152;2022-10-15T16:06:37;16.91;86.41
65972;SHT31;52726;48.852;9.152;2022-10-15T16:09:03;16.89;85.46
65972;SHT31;52726;48.852;9.152;2022-10-15T16:11:30;16.89;85.21
65972;SHT31;52726;48.852;9.152;2022-10-15T16:13:56;16.84;85.36
65972;SHT31;52726;48.852;9.152;2022-10-15T16:16:21;16.78;85.73
65972;SHT31;52726;48.852;9.152;2022-10-15T16:18:47;16.69;85.54
65972;SHT31;52726;48.852;9.152;2022-10-15T16:21:12;16.67;85.69
65972;SHT31;52726;48.852;9.152;2022-10-15T16:23:37;16.63;85.26
65972;SHT31;52726;48.852;9.152;2022-10-15T16:26:03;16.54;85.52
65972;SHT31;52726;48.852;9.152;2022-10-15T16:28:28;16.54;85.10
65972;SHT31;52726;48.852;9.152;2022-10-15T16:30:53;16.56;84.72
65972;SHT31;52726;48.852;9.152;2022-10-15T16:33:19;16.50;84.47
65972;SHT31;52726;48.852;9.152;2022-10-15T16:35:50;16.44;85.07
65972;SHT31;52726;48.852;9.152;2022-10-15T16:38:15;16.39;85.43
65972;SHT31;52726;48.852;9.152;2022-10-15T16:40:44;16.33;85.32
65972;SHT31;52726;48.852;9.152;2022-10-15T16:43:10;16.33;85.28
65972;SHT31;52726;48.852;9.152;2022-10-15T16:45:35;16.30;85.57
65972;SHT31;52726;48.852;9.152;2022-10-15T16:48:00;16.23;85.88
65972;SHT31;52726;48.852;9.152;2022-10-15T16:50:26;16.27;85.46
65972;SHT31;52726;48.852;9.152;2022-10-15T16:52:51;16.23;85.87
65972;SHT31;52726;48.852;9.152;2022-10-15T16:55:16;16.14;85.94
65972;SHT31;52726;48.852;9.152;2022-10-15T16:57:42;16.17;85.57
65972;SHT31;52726;48.852;9.152;2022-10-15T17:00:08;16.17;85.01
65972;SHT31;52726;48.852;9.152;2022-10-15T17:02:35;16.19;85.32
65972;SHT31;52726;48.852;9.152;2022-10-15T17:05:04;16.17;85.51
65972;SHT31;52726;48.852;9.152;2022-10-15T17:07:30;16.16;85.86
65972;SHT31;52726;48.852;9.152;2022-10-15T17:09:55;16.20;85.49
65972;SHT31;52726;48.852;9.152;2022-10-15T17:12:21;16.19;85.64
65972;SHT31;52726;48.852;9.152;2022-10-15T17:14:49;16.14;85.98
65972;SHT31;52726;48.852;9.152;2022-10-15T17:17:15;16.14;86.59
65972;SHT31;52726;48.852;9.152;2022-10-15T17:19:40;16.09;86.82
65972;SHT31;52726;48.852;9.152;2022-10-15T17:22:06;16.05;86.92
65972;SHT31;52726;48.852;9.152;2022-10-15T17:24:31;15.96;88.05